Terminal Aerodrome Forecast
Issued by NWS

Home | Current Version | Previous Version | Text Only | Print | Product List | Glossary On
Versions: 1 2 3 4 5 6 7 8 9 10 11 12 13 14 15 16 17 18 19
000
FTUS41 KLWX 052332
TAFMTN
TAF
KMTN 052332Z 0600/0624 31007KT P6SM SCT025 OVC100
      TEMPO 0601/0603 3SM -SN BKN025
     FM060300 31005KT P6SM SCT050
     FM061400 34005KT P6SM FEW250
      AMD NOT SKED 0600/0612=

USA.gov is the U.S. government's official web portal to all federal, state and local government web resources and services.